Time;durP1;ratioP1;P1;durP2;ratioP2;P2;SDS_P1;SDS_P2;PMS_P1;PMS_P2;Temp;Humidity;BMP_temperature;BMP_pressure;BME280_temperature;BME280_humidity;BME280_pressure;Samples;Min_cycle;Max_cycle;Signal;HPM_P1;HPM_P2
2021/11/28 00:01:10;;;;;;;27.70;20.37;;;;;;;2.11;88.35;97606.03;5132223;22;20241;-81
2021/11/28 00:03:39;;;;;;;29.83;20.97;;;;;;;2.13;88.20;97606.63;5103013;22;20251;-81
2021/11/28 00:06:13;;;;;;;26.27;20.57;;;;;;;2.12;87.54;97605.00;5070750;22;20204;-81
2021/11/28 00:11:32;;;;;;;27.70;20.03;;;;;;;2.04;87.37;97591.25;5126912;22;20237;-81
2021/11/28 00:14:31;;;;;;;25.50;19.07;;;;;;;1.98;87.88;97586.81;5145167;22;20223;-80
2021/11/28 00:17:16;;;;;;;26.30;19.57;;;;;;;2.08;88.37;97589.78;5042527;22;20258;-81
2021/11/28 00:19:48;;;;;;;24.47;18.60;;;;;;;1.99;88.09;97583.97;5113570;22;20228;-81
2021/11/28 00:22:28;;;;;;;24.57;17.83;;;;;;;2.07;88.10;97583.69;5109545;23;20263;-81
2021/11/28 00:25:42;;;;;;;23.60;18.20;;;;;;;2.08;87.34;97590.63;5118779;22;20228;-79
2021/11/28 00:28:23;;;;;;;22.60;17.57;;;;;;;2.11;87.81;97586.72;5109384;23;20207;-81
2021/11/28 00:31:23;;;;;;;24.40;16.73;;;;;;;2.04;87.53;97575.41;5118367;28;20250;-81
2021/11/28 00:34:26;;;;;;;22.50;16.80;;;;;;;2.03;87.56;97592.28;5074392;23;20257;-82
2021/11/28 00:37:05;;;;;;;23.47;17.20;;;;;;;1.95;87.90;97585.44;5166294;23;20592;-82
2021/11/28 00:39:35;;;;;;;23.53;17.70;;;;;;;1.96;88.34;97587.03;5092376;23;20247;-81
2021/11/28 00:42:06;;;;;;;23.80;17.63;;;;;;;1.99;88.18;97581.34;5092256;23;20228;-82
2021/11/28 00:44:54;;;;;;;21.97;16.60;;;;;;;2.07;88.12;97585.53;5071602;23;20248;-82
2021/11/28 00:47:24;;;;;;;22.70;17.23;;;;;;;2.07;86.48;97577.59;5063268;28;20236;-82
2021/11/28 00:52:51;;;;;;;27.37;18.87;;;;;;;1.96;86.25;97575.69;5090631;23;20220;-82
2021/11/28 00:55:22;;;;;;;22.23;16.53;;;;;;;1.80;86.91;97563.78;5090343;23;20248;-82
2021/11/28 00:58:40;;;;;;;22.47;16.90;;;;;;;1.89;87.39;97562.50;5100392;22;20311;-82
2021/11/28 01:01:17;;;;;;;22.50;17.73;;;;;;;1.94;87.62;97569.78;5099916;23;20257;-82
2021/11/28 01:04:32;;;;;;;23.93;18.07;;;;;;;1.96;88.22;97570.41;5092991;28;20232;-82
2021/11/28 01:07:54;;;;;;;24.53;18.23;;;;;;;1.94;87.70;97573.25;5095919;28;20227;-83
2021/11/28 01:10:53;;;;;;;23.20;17.07;;;;;;;1.98;87.66;97568.34;5082635;23;20219;-82
2021/11/28 01:13:42;;;;;;;20.73;16.20;;;;;;;1.92;87.79;97545.41;5092516;23;20229;-82
2021/11/28 01:16:20;;;;;;;21.90;17.83;;;;;;;1.93;88.08;97563.69;5135807;22;20232;-82
2021/11/28 01:18:58;;;;;;;23.03;17.30;;;;;;;2.02;87.43;97572.97;5205478;22;20232;-82
2021/11/28 01:22:14;;;;;;;22.60;16.97;;;;;;;1.98;88.05;97576.25;5187206;22;20217;-82
2021/11/28 01:24:47;;;;;;;23.73;17.37;;;;;;;1.92;87.38;97559.44;5093306;28;20226;-82
2021/11/28 01:27:18;;;;;;;23.30;16.87;;;;;;;1.89;87.84;97561.69;5103888;23;20232;-82
2021/11/28 01:29:48;;;;;;;22.60;17.33;;;;;;;1.90;87.87;97558.03;5094569;23;20323;-82
2021/11/28 01:32:19;;;;;;;24.20;18.00;;;;;;;1.96;87.70;97570.41;5070737;28;20228;-82
2021/11/28 01:34:46;;;;;;;22.50;17.60;;;;;;;1.94;87.72;97565.31;5076437;23;20256;-82
2021/11/28 01:37:14;;;;;;;23.60;17.77;;;;;;;2.02;87.79;97572.97;5087162;28;20181;-82
2021/11/28 01:39:45;;;;;;;21.77;16.70;;;;;;;1.96;87.56;97563.25;5109425;28;20226;-82
2021/11/28 01:42:40;;;;;;;22.07;16.87;;;;;;;2.01;87.44;97571.34;5111649;28;20251;-82
2021/11/28 01:45:11;;;;;;;21.70;17.03;;;;;;;2.04;87.64;97570.13;5086713;28;20196;-82
2021/11/28 01:47:39;;;;;;;23.77;17.67;;;;;;;1.98;87.38;97566.50;5089018;23;20256;-82
2021/11/28 01:50:07;;;;;;;23.47;18.00;;;;;;;2.10;86.78;97569.28;5081790;28;20311;-82
2021/11/28 01:52:36;;;;;;;23.37;16.77;;;;;;;2.03;86.69;97556.09;5065367;28;20563;-83
2021/11/28 01:55:11;;;;;;;21.23;16.70;;;;;;;2.12;86.55;97560.09;5066227;28;20228;-82
2021/11/28 01:57:39;;;;;;;22.27;17.03;;;;;;;2.19;86.74;97557.41;5064506;28;20224;-83
2021/11/28 02:00:13;;;;;;;23.37;18.20;;;;;;;2.11;86.46;97552.38;5064073;28;20220;-82
2021/11/28 02:02:45;;;;;;;22.97;17.20;;;;;;;2.04;85.75;97539.25;5081715;28;20232;-82
2021/11/28 02:05:22;;;;;;;22.23;16.93;;;;;;;1.97;86.08;97556.16;5050761;28;20236;-82
2021/11/28 02:07:51;;;;;;;24.20;17.70;;;;;;;1.85;86.47;97553.41;5082405;28;20227;-82
2021/11/28 02:10:24;;;;;;;24.63;17.53;;;;;;;1.86;87.32;97547.09;5065968;28;20233;-82
2021/11/28 02:12:52;;;;;;;24.67;18.50;;;;;;;1.90;87.82;97529.00;5082167;28;20237;-82
2021/11/28 02:15:21;;;;;;;25.50;18.80;;;;;;;1.83;87.49;97517.66;5082647;28;20240;-82
2021/11/28 02:18:08;;;;;;;25.03;18.37;;;;;;;1.78;87.75;97521.75;5067294;28;20643;-83
2021/11/28 02:20:46;;;;;;;24.80;18.87;;;;;;;1.82;87.75;97542.47;5083272;28;20181;-82
2021/11/28 02:23:16;;;;;;;25.00;18.93;;;;;;;1.88;88.07;97528.38;5081651;28;20627;-82
2021/11/28 02:25:44;;;;;;;25.80;19.47;;;;;;;1.80;87.33;97518.09;5080645;28;20663;-82
2021/11/28 02:28:37;;;;;;;26.07;19.67;;;;;;;1.80;88.12;97510.19;5067988;28;20221;-82
2021/11/28 02:31:07;;;;;;;28.47;19.83;;;;;;;1.72;87.98;97500.69;5072310;28;20240;-82
2021/11/28 02:33:44;;;;;;;27.07;19.60;;;;;;;1.80;87.70;97516.28;5076753;23;20245;-82
2021/11/28 02:36:36;;;;;;;26.40;19.10;;;;;;;1.88;87.89;97528.38;5052934;28;20229;-82
2021/11/28 02:39:05;;;;;;;25.80;19.07;;;;;;;1.84;87.87;97519.28;5055735;28;20233;-82
2021/11/28 02:41:33;;;;;;;26.67;19.00;;;;;;;1.82;87.73;97516.84;5068425;28;20226;-82
2021/11/28 02:44:20;;;;;;;24.60;19.00;;;;;;;1.88;88.14;97520.47;5070528;28;20244;-82
2021/11/28 02:46:51;;;;;;;24.43;18.03;;;;;;;2.00;87.32;97518.75;5070230;28;20293;-82
2021/11/28 02:49:18;;;;;;;25.90;19.50;;;;;;;1.90;86.89;97510.50;5069062;28;20245;-82
2021/11/28 02:51:51;;;;;;;26.73;19.03;;;;;;;1.89;87.67;97516.81;5085121;23;20237;-82
2021/11/28 02:54:30;;;;;;;27.97;19.27;;;;;;;1.84;86.95;97498.16;5091948;28;20236;-82
2021/11/28 02:57:28;;;;;;;27.13;19.57;;;;;;;1.88;86.99;97499.34;5104641;22;20218;-80
2021/11/28 03:00:25;;;;;;;27.03;19.27;;;;;;;1.87;87.05;97495.88;5112002;28;20188;-82
2021/11/28 03:02:52;;;;;;;28.40;19.67;;;;;;;1.93;87.19;97488.94;5110592;28;20611;-82
2021/11/28 03:05:33;;;;;;;27.40;19.00;;;;;;;1.82;87.00;97477.25;5094149;28;20236;-82
2021/11/28 03:08:05;;;;;;;27.00;18.93;;;;;;;1.78;86.65;97490.06;5119445;22;20211;-82
2021/11/28 03:10:48;;;;;;;24.50;18.30;;;;;;;1.87;87.20;97489.81;5097247;28;20196;-82
2021/11/28 03:13:40;;;;;;;26.43;19.17;;;;;;;1.81;86.78;97491.50;5101068;23;20228;-83
2021/11/28 03:16:19;;;;;;;26.27;18.03;;;;;;;1.81;87.17;97480.94;5095764;23;20559;-83
2021/11/28 03:19:10;;;;;;;27.57;18.67;;;;;;;1.89;87.21;97483.28;5091572;28;20221;-82
2021/11/28 03:21:49;;;;;;;25.23;18.23;;;;;;;1.83;86.87;97484.16;5087263;28;20200;-81
2021/11/28 03:24:45;;;;;;;26.47;17.67;;;;;;;1.77;86.41;97487.66;5103632;23;20229;-82
2021/11/28 03:27:35;;;;;;;25.53;18.33;;;;;;;1.78;87.25;97478.69;5090445;28;20260;-82
2021/11/28 03:30:08;;;;;;;25.63;17.23;;;;;;;1.64;87.48;97450.78;5073172;28;20228;-82
2021/11/28 03:33:13;;;;;;;26.43;17.40;;;;;;;1.79;87.10;97459.19;5030753;28;20226;-82
2021/11/28 03:36:13;;;;;;;26.10;18.17;;;;;;;1.74;86.81;97445.84;5033376;22;20223;-82
2021/11/28 03:38:42;;;;;;;25.47;17.67;;;;;;;1.76;87.34;97444.63;5078750;28;20259;-82
2021/11/28 03:41:15;;;;;;;28.60;18.57;;;;;;;1.62;87.36;97410.63;5083230;22;20226;-82
2021/11/28 03:43:48;;;;;;;25.57;17.50;;;;;;;1.77;87.34;97421.66;5095875;28;20296;-82
2021/11/28 03:46:18;;;;;;;26.50;17.47;;;;;;;1.69;87.47;97424.56;5112075;28;20247;-82
2021/11/28 03:48:45;;;;;;;29.03;19.13;;;;;;;1.72;87.41;97419.69;5079164;28;20219;-82
2021/11/28 03:51:19;;;;;;;30.63;19.57;;;;;;;1.81;87.27;97437.88;5112453;28;20183;-83
2021/11/28 03:53:47;;;;;;;26.63;18.80;;;;;;;1.72;87.23;97424.97;5114563;28;20212;-83
2021/11/28 03:56:16;;;;;;;29.20;19.53;;;;;;;1.83;87.08;97438.44;5101032;22;20236;-82
2021/11/28 03:58:44;;;;;;;30.30;18.53;;;;;;;1.87;87.38;97421.94;5102131;23;20231;-82
2021/11/28 04:01:33;;;;;;;27.23;17.83;;;;;;;1.76;87.15;97402.38;5095443;28;20228;-82
2021/11/28 04:04:00;;;;;;;29.47;18.47;;;;;;;1.81;87.29;97403.56;5100416;23;20224;-82
2021/11/28 04:07:07;;;;;;;29.00;19.70;;;;;;;1.73;87.05;97386.13;5093810;28;20188;-82
2021/11/28 04:09:44;;;;;;;30.70;19.13;;;;;;;1.81;87.18;97388.53;5117675;22;20302;-83
2021/11/28 04:12:31;;;;;;;32.03;20.30;;;;;;;1.86;87.86;97380.75;5098650;23;20237;-81
2021/11/28 04:15:02;;;;;;;31.47;19.43;;;;;;;1.85;87.63;97359.84;5098231;23;20719;-81
2021/11/28 04:17:32;;;;;;;32.23;20.33;;;;;;;1.82;87.56;97358.44;5073279;28;20195;-82
2021/11/28 04:20:12;;;;;;;35.27;20.27;;;;;;;1.82;87.38;97358.44;5074753;28;20224;-81
2021/11/28 04:22:42;;;;;;;31.77;19.90;;;;;;;1.81;87.96;97362.13;5092054;28;20224;-81
2021/11/28 04:25:15;;;;;;;28.60;18.47;;;;;;;1.85;87.76;97368.56;5091479;28;20188;-81
2021/11/28 04:27:44;;;;;;;30.53;19.60;;;;;;;1.86;87.29;97370.19;5074481;28;20235;-81
2021/11/28 04:30:29;;;;;;;29.87;19.33;;;;;;;1.85;87.23;97381.78;5112483;23;20232;-81
2021/11/28 04:32:58;;;;;;;29.27;18.63;;;;;;;1.88;87.62;97380.50;5075619;28;20269;-81
2021/11/28 04:35:32;;;;;;;30.20;19.27;;;;;;;1.84;87.38;97366.13;5076138;28;20202;-81
2021/11/28 04:38:04;;;;;;;29.93;19.00;;;;;;;1.92;87.45;97381.69;5100108;23;20255;-81
2021/11/28 04:40:31;;;;;;;33.07;20.70;;;;;;;1.93;87.60;97370.09;5082397;23;20568;-81
2021/11/28 04:43:02;;;;;;;32.60;20.47;;;;;;;1.84;87.39;97350.28;5101424;23;20242;-81
2021/11/28 04:45:33;;;;;;;31.63;19.33;;;;;;;1.96;87.23;97369.69;5073827;23;20217;-81
2021/11/28 04:48:07;;;;;;;30.13;19.60;;;;;;;1.99;87.42;97367.41;5068326;28;20343;-81
2021/11/28 04:50:41;;;;;;;31.50;19.57;;;;;;;2.01;87.35;97359.25;5054688;28;20259;-81
2021/11/28 04:53:15;;;;;;;33.63;19.80;;;;;;;1.97;87.75;97350.97;5053797;28;20216;-81
2021/11/28 04:55:43;;;;;;;30.20;19.87;;;;;;;1.90;87.40;97352.88;5108030;22;20250;-81
2021/11/28 04:58:35;;;;;;;34.23;20.87;;;;;;;1.98;87.79;97368.44;5075631;28;20231;-81
2021/11/28 05:01:03;;;;;;;33.40;20.87;;;;;;;1.99;87.05;97366.59;5099785;23;20235;-81
2021/11/28 05:03:40;;;;;;;29.37;19.50;;;;;;;1.99;86.88;97363.94;5076864;28;20226;-82
2021/11/28 05:06:37;;;;;;;29.00;20.07;;;;;;;1.99;86.83;97356.84;5069173;28;20223;-82
2021/11/28 05:09:20;;;;;;;33.30;20.20;;;;;;;1.94;86.79;97345.31;5077949;28;20191;-81
2021/11/28 05:11:49;;;;;;;33.67;20.70;;;;;;;1.95;87.03;97341.66;5076764;28;20212;-81
2021/11/28 05:14:19;;;;;;;32.30;20.43;;;;;;;1.94;86.75;97330.28;5092012;28;20273;-81
2021/11/28 05:16:55;;;;;;;31.90;21.30;;;;;;;1.98;86.64;97343.84;5093385;28;20234;-82
2021/11/28 05:19:30;;;;;;;33.07;20.20;;;;;;;1.87;86.70;97334.81;5026569;28;20250;-81
2021/11/28 05:22:09;;;;;;;29.17;18.40;;;;;;;1.93;86.94;97326.03;5029104;28;20230;-81
2021/11/28 05:24:40;;;;;;;29.53;18.07;;;;;;;2.00;86.79;97332.06;5028053;28;20257;-81
2021/11/28 05:27:11;;;;;;;31.13;19.40;;;;;;;1.83;85.83;97325.72;5027347;28;20274;-82
2021/11/28 05:29:46;;;;;;;30.60;19.50;;;;;;;1.89;86.53;97324.84;5038629;23;20225;-81
2021/11/28 05:32:16;;;;;;;30.53;18.90;;;;;;;1.88;86.62;97328.50;5071430;28;20227;-81
2021/11/28 05:35:36;;;;;;;29.70;18.50;;;;;;;1.82;86.79;97324.09;5113251;22;20246;-81
2021/11/28 05:38:23;;;;;;;30.43;18.27;;;;;;;1.94;85.65;97318.91;5087622;23;20223;-83
2021/11/28 05:40:55;;;;;;;29.20;18.90;;;;;;;1.91;85.91;97309.59;5127191;22;20228;-81
2021/11/28 05:43:53;;;;;;;31.00;19.03;;;;;;;1.87;85.59;97297.84;5086951;22;20252;-81
2021/11/28 05:46:29;;;;;;;29.33;19.47;;;;;;;1.78;85.64;97276.22;5076393;23;20239;-81
2021/11/28 05:50:06;;;;;;;32.77;19.63;;;;;;;1.74;85.74;97280.34;5078835;22;20742;-81
2021/11/28 05:53:02;;;;;;;33.27;20.00;;;;;;;1.72;86.11;97306.16;5114550;22;20232;-81
2021/11/28 05:55:51;;;;;;;32.70;21.00;;;;;;;1.62;86.41;97302.41;5039888;23;20225;-81
2021/11/28 05:58:52;;;;;;;35.10;20.70;;;;;;;1.65;87.23;97312.50;5033382;28;20201;-81
2021/11/28 06:01:21;;;;;;;34.50;21.00;;;;;;;1.66;87.44;97322.88;5031945;23;20225;-83
2021/11/28 06:04:16;;;;;;;35.57;21.97;;;;;;;1.70;87.69;97325.88;5085270;23;20232;-81
2021/11/28 06:07:07;;;;;;;34.30;21.20;;;;;;;1.68;88.17;97331.34;5119908;22;20257;-81
2021/11/28 06:10:05;;;;;;;36.70;21.73;;;;;;;1.70;87.66;97331.97;5097159;28;20219;-81
2021/11/28 06:12:54;;;;;;;32.03;20.30;;;;;;;1.69;87.98;97335.63;5109907;23;20291;-81
2021/11/28 06:15:27;;;;;;;31.93;19.77;;;;;;;1.72;87.41;97326.47;5027023;28;20262;-81
2021/11/28 06:18:24;;;;;;;29.33;18.13;;;;;;;1.66;87.94;97314.94;4997318;28;20192;-81
2021/11/28 06:21:33;;;;;;;31.27;19.63;;;;;;;1.67;87.90;97337.69;4973360;29;20192;-81
2021/11/28 06:24:26;;;;;;;31.07;18.57;;;;;;;1.68;88.32;97331.34;4974010;29;20220;-82
2021/11/28 06:27:55;;;;;;;32.27;19.17;;;;;;;1.58;87.79;97328.44;4958547;29;20241;-82
2021/11/28 06:34:06;;;;;;;27.70;18.33;;;;;;;1.51;87.66;97325.03;5000395;28;20231;-83
2021/11/28 06:36:54;;;;;;;30.03;19.57;;;;;;;1.61;87.38;97335.91;5118215;22;20238;-83
2021/11/28 06:39:51;;;;;;;31.30;19.17;;;;;;;1.57;87.35;97342.66;5069516;28;20220;-83
2021/11/28 06:42:48;;;;;;;32.63;20.30;;;;;;;1.59;87.48;97352.97;5081709;28;20221;-83
2021/11/28 06:45:24;;;;;;;33.37;22.50;;;;;;;1.57;87.60;97362.97;5080450;28;20228;-83
2021/11/28 06:48:10;;;;;;;38.33;29.20;;;;;;;1.56;87.71;97356.88;5064287;28;20192;-83
2021/11/28 06:53:56;;;;;;;36.67;25.67;;;;;;;1.55;87.66;97349.97;4980553;28;20220;-83
2021/11/28 13:23:42;;;;;;;6.10;5.50;;;;;;;2.88;81.37;97191.34;4884495;29;20216;-83
2021/11/28 13:27:00;;;;;;;5.50;5.00;;;;;;;3.21;79.92;97214.56;4892438;23;20248;31
2021/11/28 13:30:18;;;;;;;5.77;5.27;;;;;;;2.94;80.89;97179.84;4852916;29;20225;-83
2021/11/28 13:33:57;;;;;;;6.00;5.50;;;;;;;2.85;81.42;97191.78;4886793;23;20215;-83
2021/11/28 13:40:32;;;;;;;5.63;5.13;;;;;;;3.01;81.38;97234.22;5048115;23;20214;-83
2021/11/28 13:43:45;;;;;;;5.10;4.60;;;;;;;3.14;81.54;97259.66;4931280;29;20246;-83
2021/11/28 13:47:01;;;;;;;4.30;3.90;;;;;;;3.07;82.21;97267.72;4908461;29;20220;-82
2021/11/28 13:50:20;;;;;;;3.83;3.53;;;;;;;3.17;81.66;97267.16;4939931;29;20190;-82
2021/11/28 13:53:34;;;;;;;3.70;3.40;;;;;;;3.17;81.61;97264.50;4923872;29;20313;-83
2021/11/28 13:57:13;;;;;;;3.17;2.87;;;;;;;3.20;81.28;97258.72;4933752;29;20239;-81
2021/11/28 14:00:19;;;;;;;2.97;2.67;;;;;;;3.19;81.58;97261.59;4822430;29;20218;-82
2021/11/28 14:02:50;;;;;;;2.80;2.60;;;;;;;3.10;81.59;97253.22;4807556;29;20425;-82
2021/11/28 14:05:32;;;;;;;2.70;2.43;;;;;;;3.18;81.63;97268.72;4914772;29;20297;-82
2021/11/28 14:08:18;;;;;;;2.20;2.00;;;;;;;3.21;80.63;97255.06;4930109;29;20508;-82
2021/11/28 14:11:23;;;;;;;2.10;1.90;;;;;;;3.18;80.53;97271.38;4935564;29;20225;-82
2021/11/28 14:14:16;;;;;;;2.23;1.90;;;;;;;3.17;80.50;97282.22;4916679;29;20226;-82
2021/11/28 14:17:13;;;;;;;2.17;1.97;;;;;;;3.15;80.12;97284.28;4934835;29;20289;-81
2021/11/28 14:20:18;;;;;;;2.00;1.90;;;;;;;3.25;80.65;97295.91;4931663;23;20242;-82
2021/11/28 14:22:58;;;;;;;3.17;1.83;;;;;;;3.19;81.33;97293.34;4940528;23;20230;-81
2021/11/28 14:25:51;;;;;;;1.97;1.87;;;;;;;3.20;80.97;97301.06;4884231;29;20231;-82
2021/11/28 14:29:21;;;;;;;2.10;1.90;;;;;;;3.09;80.69;97307.16;4901166;29;20231;-82
2021/11/28 14:32:07;;;;;;;2.80;2.50;;;;;;;2.96;80.80;97276.44;4911896;23;20215;-81
2021/11/28 14:35:12;;;;;;;2.60;2.40;;;;;;;3.07;81.07;97303.94;4906622;23;20231;-81
2021/11/28 14:38:41;;;;;;;2.33;2.13;;;;;;;3.17;81.02;97282.22;4916414;29;20209;-82
2021/11/28 14:45:28;;;;;;;2.60;2.40;;;;;;;2.99;80.76;97283.09;4886809;23;20227;-81
2021/11/28 14:55:46;;;;;;;3.00;2.70;;;;;;;2.76;81.16;97304.19;4879199;29;20245;-81
2021/11/28 14:59:00;;;;;;;2.70;2.50;;;;;;;2.57;81.91;97275.19;4882066;29;20227;-81
2021/11/28 15:02:41;;;;;;;4.10;2.67;;;;;;;2.81;81.59;97297.22;4878968;29;20240;-82
2021/11/28 15:05:40;;;;;;;3.30;2.63;;;;;;;2.74;81.72;97303.63;4880318;29;20228;-81
2021/11/28 15:09:22;;;;;;;2.90;2.60;;;;;;;2.86;80.78;97307.09;4930017;23;20230;-81
2021/11/28 15:12:43;;;;;;;2.87;2.30;;;;;;;2.85;79.91;97298.38;4935841;23;20226;-82
2021/11/28 15:15:59;;;;;;;3.50;2.70;;;;;;;2.83;80.68;97305.72;4924204;29;20237;-81
2021/11/28 15:19:13;;;;;;;2.90;2.50;;;;;;;2.70;80.41;97291.91;4970800;23;20234;-81
2021/11/28 15:22:43;;;;;;;2.50;2.30;;;;;;;2.82;80.77;97317.34;4940114;23;20226;-81
2021/11/28 15:26:05;;;;;;;2.40;2.10;;;;;;;2.83;79.61;97315.50;4938405;23;20250;-81
2021/11/28 15:29:24;;;;;;;3.17;2.87;;;;;;;2.81;80.04;97318.38;4918817;23;20581;-81
2021/11/28 15:32:05;;;;;;;3.00;2.70;;;;;;;2.74;80.43;97308.94;4901222;23;20234;-80
2021/11/28 15:34:38;;;;;;;3.10;2.67;;;;;;;2.78;80.36;97297.66;4912694;29;20214;-81
2021/11/28 15:37:08;;;;;;;3.27;2.97;;;;;;;2.87;80.50;97306.88;4933381;23;20226;-81
2021/11/28 15:39:40;;;;;;;3.23;2.93;;;;;;;2.88;80.22;97310.34;4906101;23;20242;-81
2021/11/28 15:42:08;;;;;;;3.30;3.00;;;;;;;2.87;79.77;97327.25;4910721;23;20214;-82
2021/11/28 15:45:09;;;;;;;3.50;3.20;;;;;;;2.81;80.48;97317.56;4927215;23;20277;-81
2021/11/28 15:47:37;;;;;;;3.43;2.70;;;;;;;2.79;80.39;97306.41;4953280;23;20230;-83
2021/11/28 15:50:10;;;;;;;3.60;3.30;;;;;;;2.74;80.10;97309.72;4921902;23;20263;-83
2021/11/28 15:52:41;;;;;;;3.57;3.23;;;;;;;2.82;80.00;97316.53;4899489;29;20235;-85
2021/11/28 15:55:22;;;;;;;3.60;3.30;;;;;;;3.01;79.86;97341.88;4920900;23;20607;-81
2021/11/28 15:57:53;;;;;;;3.53;3.23;;;;;;;2.79;79.91;97298.47;4915328;29;20301;-83
2021/11/28 16:00:28;;;;;;;2.87;2.67;;;;;;;2.89;79.76;97274.94;4901486;29;20239;-81
2021/11/28 16:03:10;;;;;;;3.20;2.90;;;;;;;2.87;79.11;97238.13;4919681;29;20199;-80
2021/11/28 16:05:49;;;;;;;3.30;3.00;;;;;;;2.73;79.54;97217.41;4889328;29;20249;-80
2021/11/28 16:08:27;;;;;;;3.13;2.83;;;;;;;2.75;79.65;97223.28;4920060;29;20331;-81
2021/11/28 16:11:07;;;;;;;3.57;3.27;;;;;;;2.80;79.48;97218.13;4900487;29;20274;-81
2021/11/28 16:13:47;;;;;;;3.37;3.07;;;;;;;2.64;79.65;97246.81;4917330;29;20618;-81
2021/11/28 16:16:18;;;;;;;4.23;3.50;;;;;;;2.60;80.18;97235.09;4915807;29;20246;-83
2021/11/28 16:18:46;;;;;;;3.40;3.10;;;;;;;2.66;80.31;97246.59;4899460;29;20234;-81
2021/11/28 16:21:39;;;;;;;3.00;2.70;;;;;;;2.62;80.22;97262.09;4919419;29;20229;-81
2021/11/28 16:24:25;;;;;;;2.87;2.67;;;;;;;2.51;80.81;97283.22;4920573;29;20203;-81
2021/11/28 16:26:57;;;;;;;3.73;3.37;;;;;;;2.54;81.30;97311.84;4917454;29;20239;-81
2021/11/28 16:29:27;;;;;;;3.33;3.03;;;;;;;2.48;80.89;97297.69;4920585;29;20222;-81
2021/11/28 16:32:18;;;;;;;3.70;3.40;;;;;;;2.43;81.45;97307.31;4921294;29;20211;-81
2021/11/28 16:35:20;;;;;;;3.60;3.30;;;;;;;2.43;81.45;97308.13;4922787;29;20187;-81
2021/11/28 16:39:05;;;;;;;3.57;3.27;;;;;;;2.46;81.30;97320.91;4908288;29;20211;-81
2021/11/28 16:42:26;;;;;;;3.33;3.03;;;;;;;2.43;81.44;97339.84;4928912;23;20203;-80
2021/11/28 16:45:29;;;;;;;3.43;3.13;;;;;;;2.40;81.48;97324.44;4929185;23;20187;-81
2021/11/28 16:48:47;;;;;;;3.60;3.30;;;;;;;2.22;81.57;97288.28;4926554;23;20239;-80
2021/11/28 16:51:45;;;;;;;3.67;3.37;;;;;;;2.41;81.47;97320.78;4905326;23;20214;-81
2021/11/28 16:54:59;;;;;;;3.60;3.30;;;;;;;2.41;81.95;97325.25;4914031;23;20315;-80
2021/11/28 16:57:41;;;;;;;3.30;3.00;;;;;;;2.53;81.18;97334.81;4919583;23;20215;-80
2021/11/28 17:00:52;;;;;;;3.20;2.90;;;;;;;2.48;81.17;97333.88;4927662;23;20214;-82
2021/11/28 17:03:29;;;;;;;3.53;3.20;;;;;;;2.43;81.57;97323.16;4890476;23;20240;-80
2021/11/28 17:06:31;;;;;;;2.80;2.50;;;;;;;2.43;81.07;97326.63;4892084;23;20639;-81
2021/11/28 17:09:04;;;;;;;3.40;3.10;;;;;;;2.44;81.43;97316.84;4939420;23;20305;-81
2021/11/28 17:11:51;;;;;;;3.17;2.90;;;;;;;2.45;81.16;97326.41;4892383;24;20231;-81
2021/11/28 17:14:21;;;;;;;3.43;3.13;;;;;;;2.27;80.69;97318.50;4892786;23;21184;-81
2021/11/28 17:17:12;;;;;;;3.27;2.97;;;;;;;2.39;80.56;97351.88;4927416;23;20211;-80
2021/11/28 17:20:40;;;;;;;3.43;3.13;;;;;;;2.48;80.65;97352.38;4925081;23;20238;-80
2021/11/28 17:23:29;;;;;;;3.47;3.13;;;;;;;2.38;79.85;97337.06;4924553;23;20234;-81
2021/11/28 17:26:07;;;;;;;3.60;3.30;;;;;;;2.54;79.81;97352.31;4913944;23;20233;-80
2021/11/28 17:29:00;;;;;;;3.83;2.80;;;;;;;2.56;79.88;97355.53;4922360;23;20235;-80
2021/11/28 17:32:20;;;;;;;3.30;3.00;;;;;;;2.55;79.39;97367.13;4923158;23;20234;-81
2021/11/28 17:34:52;;;;;;;3.50;3.20;;;;;;;2.45;79.15;97371.34;4916812;29;20199;-80
2021/11/28 17:37:22;;;;;;;3.07;2.80;;;;;;;2.55;79.00;97382.19;4884401;29;20530;-80
2021/11/28 17:39:53;;;;;;;3.47;3.17;;;;;;;2.43;79.65;97392.69;4912432;29;20227;-80
2021/11/28 17:42:25;;;;;;;3.63;3.33;;;;;;;2.42;79.55;97404.31;4923310;23;20239;-80
2021/11/28 17:44:59;;;;;;;3.73;3.40;;;;;;;2.49;79.12;97391.81;4912694;23;20385;-81
2021/11/28 17:47:37;;;;;;;3.60;3.30;;;;;;;2.61;79.17;97400.59;4919417;23;20531;-81
2021/11/28 17:50:12;;;;;;;3.57;3.27;;;;;;;2.66;78.50;97405.22;4924150;23;20303;-81
2021/11/28 17:52:57;;;;;;;3.67;3.37;;;;;;;2.74;78.55;97390.91;4926827;23;20260;-83
2021/11/28 17:55:33;;;;;;;3.53;3.23;;;;;;;2.70;78.85;97369.38;4912383;29;20290;-82
2021/11/28 17:58:21;;;;;;;4.13;3.73;;;;;;;2.64;78.38;97354.41;4918931;23;20257;-83
2021/11/28 18:00:58;;;;;;;4.20;3.77;;;;;;;2.69;78.25;97357.19;4911215;23;20238;-82
2021/11/28 18:03:28;;;;;;;3.63;3.33;;;;;;;2.57;78.82;97325.41;4894877;29;20291;-82
2021/11/28 18:06:05;;;;;;;4.93;3.90;;;;;;;2.58;78.69;97340.25;4876763;23;20239;-83
2021/11/28 18:08:46;;;;;;;4.10;3.70;;;;;;;2.50;78.76;97337.13;4890209;29;20244;-82
2021/11/28 18:11:32;;;;;;;5.50;4.00;;;;;;;2.37;79.24;97309.03;4878263;29;20188;-82
2021/11/28 18:14:41;;;;;;;4.23;3.83;;;;;;;2.47;79.44;97335.72;4877246;29;20234;-82
2021/11/28 18:17:12;;;;;;;5.07;4.57;;;;;;;2.44;79.57;97346.75;4878248;29;20192;-83
2021/11/28 18:19:52;;;;;;;4.87;4.47;;;;;;;2.39;79.30;97349.25;4896631;23;20230;-83
2021/11/28 18:22:27;;;;;;;5.10;4.60;;;;;;;2.36;79.54;97339.13;4911954;29;20231;-83
2021/11/28 18:24:54;;;;;;;4.87;4.47;;;;;;;2.43;79.32;97347.75;4912046;29;20329;-82
2021/11/28 18:27:26;;;;;;;4.60;4.20;;;;;;;2.22;80.22;97332.41;4911540;29;20213;-83
2021/11/28 18:30:34;;;;;;;4.97;4.50;;;;;;;2.22;79.78;97316.53;4912101;29;20231;-83
2021/11/28 18:33:26;;;;;;;4.93;4.50;;;;;;;2.26;80.51;97309.78;4914167;29;20235;-81
2021/11/28 18:36:08;;;;;;;6.10;5.20;;;;;;;2.23;80.04;97318.16;4912701;29;20211;-81
2021/11/28 18:38:44;;;;;;;5.20;4.63;;;;;;;2.21;80.09;97325.50;4902193;23;20282;-83
2021/11/28 18:41:14;;;;;;;5.20;4.70;;;;;;;2.32;79.88;97321.28;4929210;23;20284;-80
2021/11/28 18:44:02;;;;;;;5.10;4.63;;;;;;;2.16;79.41;97306.84;4917355;23;20234;-82
2021/11/28 18:46:31;;;;;;;4.60;4.20;;;;;;;2.14;80.32;97301.81;4916250;23;20233;-82
2021/11/28 18:48:59;;;;;;;5.27;4.33;;;;;;;2.10;79.77;97310.41;4893162;29;20259;-82
2021/11/28 18:51:27;;;;;;;4.73;4.30;;;;;;;2.10;79.39;97291.91;4907987;29;20231;-83
2021/11/28 18:53:54;;;;;;;4.20;3.80;;;;;;;2.13;78.97;97292.28;4908951;29;20238;-83
2021/11/28 18:56:28;;;;;;;4.30;3.90;;;;;;;2.19;79.00;97319.63;4910105;29;20231;-83
2021/11/28 18:59:05;;;;;;;4.63;4.23;;;;;;;2.14;78.41;97325.59;4912654;29;20195;-82
2021/11/28 19:01:41;;;;;;;3.87;3.57;;;;;;;2.14;78.83;97341.44;4915219;29;20317;-83
2021/11/28 19:04:14;;;;;;;4.10;3.70;;;;;;;2.18;78.13;97339.16;4915889;29;20222;-83
2021/11/28 19:07:19;;;;;;;4.17;3.80;;;;;;;2.12;78.62;97346.13;4915057;29;20238;-82
2021/11/28 19:09:47;;;;;;;4.67;4.20;;;;;;;2.32;77.33;97353.00;4922282;23;20281;-82
2021/11/28 19:12:17;;;;;;;3.67;3.30;;;;;;;2.23;77.76;97357.78;4929361;23;20238;-82
2021/11/28 19:15:18;;;;;;;3.93;3.53;;;;;;;2.33;77.52;97368.66;4918067;29;20227;-82
2021/11/28 19:17:51;;;;;;;3.90;3.60;;;;;;;2.23;76.81;97349.88;4917773;23;20631;-82
2021/11/28 19:20:22;;;;;;;4.40;3.93;;;;;;;2.46;76.54;97381.69;4894262;29;20238;-83
2021/11/28 19:22:59;;;;;;;4.43;3.83;;;;;;;2.27;76.38;97363.44;4896207;29;20253;-82
2021/11/28 19:25:49;;;;;;;4.83;4.43;;;;;;;2.26;77.22;97369.75;4934261;23;20238;-83
2021/11/28 19:31:43;;;;;;;5.17;4.50;;;;;;;2.22;78.66;97407.19;4923558;23;20318;-82
2021/11/28 19:34:49;;;;;;;5.27;4.77;;;;;;;2.32;77.74;97396.09;4930192;23;20234;-83
2021/11/28 19:37:43;;;;;;;5.60;5.00;;;;;;;2.15;78.38;97384.47;4920894;29;20191;-82
2021/11/28 19:40:21;;;;;;;5.47;4.93;;;;;;;2.01;78.69;97375.91;4927381;23;20241;-83
2021/11/28 19:43:17;;;;;;;5.33;4.83;;;;;;;2.17;79.12;97403.56;4918949;29;20222;-83
2021/11/28 19:46:40;;;;;;;6.13;5.40;;;;;;;2.25;78.43;97420.97;5003649;23;20234;-83
2021/11/28 19:49:42;;;;;;;6.07;5.47;;;;;;;2.16;78.56;97423.91;4928561;23;20321;-83
2021/11/28 19:52:31;;;;;;;5.17;4.73;;;;;;;2.21;77.82;97455.75;4912406;23;20235;-82
2021/11/28 19:55:02;;;;;;;5.70;5.20;;;;;;;2.22;78.53;97446.81;4931736;23;20214;-83
2021/11/28 19:57:47;;;;;;;6.33;5.73;;;;;;;2.10;78.98;97421.34;4911296;23;20235;-83